createdAt,value
2023-01-30T00:02:37.136Z,80.08
2023-01-30T00:07:38.668Z,80.77
2023-01-30T00:12:40.618Z,80.51
2023-01-30T00:17:42.076Z,80.33
2023-01-30T00:22:52.425Z,80.26
2023-01-30T00:28:01.624Z,80.06
2023-01-30T00:33:03.571Z,80.56
2023-01-30T00:38:05.068Z,80.36
2023-01-30T00:43:25.577Z,80.03
2023-01-30T00:48:27.933Z,80.33
2023-01-30T00:53:29.558Z,80.46
2023-01-30T00:58:31.099Z,80.29
2023-01-30T01:03:32.622Z,80.67
2023-01-30T01:08:34.149Z,80.88
2023-01-30T01:13:36.072Z,80.54
2023-01-30T01:18:37.575Z,80.28
2023-01-30T01:23:39.411Z,80.45
2023-01-30T01:28:40.929Z,80.58
2023-01-30T01:33:42.452Z,80.43
2023-01-30T01:38:44.306Z,80.30
2023-01-30T01:44:07.978Z,80.42
2023-01-30T01:49:22.635Z,80.34
2023-01-30T01:54:40.343Z,80.02
2023-01-30T01:59:50.063Z,79.65
2023-01-30T02:05:03.711Z,79.44
2023-01-30T02:10:08.255Z,79.80
2023-01-30T02:15:10.670Z,79.55
2023-01-30T02:20:40.018Z,79.41
2023-01-30T02:25:47.459Z,79.35
2023-01-30T02:30:58.121Z,79.29
2023-01-30T02:36:17.873Z,79.00
2023-01-30T02:41:53.576Z,78.82
2023-01-30T02:47:02.049Z,78.56
2023-01-30T02:52:06.921Z,78.94
2023-01-30T02:57:20.909Z,78.49
2023-01-30T03:02:28.671Z,78.34
2023-01-30T03:08:07.468Z,78.31
2023-01-30T03:13:18.131Z,78.61
2023-01-30T03:18:21.325Z,78.18
2023-01-30T03:23:22.794Z,78.01
2023-01-30T03:28:24.565Z,77.83
2023-01-30T03:33:26.113Z,78.26
2023-01-30T03:38:27.907Z,77.65
2023-01-30T03:43:29.619Z,77.54
2023-01-30T03:48:31.135Z,77.54
2023-01-30T03:53:32.620Z,77.81
2023-01-30T03:58:34.215Z,78.09
2023-01-30T04:03:35.715Z,78.51
2023-01-30T04:08:37.251Z,78.45
2023-01-30T04:13:38.731Z,78.99
2023-01-30T04:18:40.183Z,79.47
2023-01-30T04:30:09.083Z,79.48
2023-01-30T04:42:01.600Z,78.11
2023-01-30T04:53:13.971Z,77.60
2023-01-30T04:58:16.101Z,76.75
2023-01-30T05:03:18.696Z,76.45
2023-01-30T05:08:20.152Z,76.24
2023-01-30T05:13:21.627Z,76.11
2023-01-30T05:18:23.278Z,76.17
2023-01-30T05:23:24.793Z,75.80
2023-01-30T05:28:26.470Z,75.56
2023-01-30T05:33:28.282Z,75.65
2023-01-30T05:38:29.899Z,75.67
2023-01-30T05:43:32.191Z,75.36
2023-01-30T05:48:34.283Z,75.49
2023-01-30T05:53:36.044Z,75.29
2023-01-30T05:58:37.660Z,75.45
2023-01-30T06:03:39.366Z,75.54
2023-01-30T06:08:41.554Z,75.27
2023-01-30T06:13:43.858Z,75.56
2023-01-30T06:18:48.397Z,75.65
2023-01-30T06:23:49.830Z,75.66
2023-01-30T06:28:51.317Z,75.34
2023-01-30T06:33:52.901Z,75.00
2023-01-30T06:38:54.458Z,75.17
2023-01-30T06:43:56.005Z,75.63
2023-01-30T06:48:57.541Z,75.35
2023-01-30T06:53:59.129Z,75.52
2023-01-30T06:59:00.586Z,75.46
2023-01-30T07:04:02.100Z,75.75
2023-01-30T07:09:03.790Z,75.35
2023-01-30T07:14:06.411Z,75.18
2023-01-30T07:19:08.793Z,74.76
2023-01-30T07:24:10.278Z,74.69
2023-01-30T07:29:11.806Z,74.88
2023-01-30T07:34:13.276Z,74.32
2023-01-30T07:39:14.745Z,74.38
2023-01-30T07:44:16.407Z,74.87
2023-01-30T07:49:17.952Z,75.54
2023-01-30T07:54:20.073Z,76.08
2023-01-30T07:59:21.644Z,75.79
2023-01-30T08:04:23.245Z,75.44
2023-01-30T08:09:24.801Z,75.49
2023-01-30T08:14:26.420Z,76.00
2023-01-30T08:19:28.023Z,76.02
2023-01-30T08:24:29.499Z,76.02
2023-01-30T08:29:31.532Z,75.78
2023-01-30T08:34:33.212Z,76.01
2023-01-30T08:39:36.403Z,76.34
2023-01-30T08:44:38.860Z,76.21
2023-01-30T08:49:40.369Z,76.45
2023-01-30T08:54:41.835Z,76.85
2023-01-30T08:59:43.409Z,76.86
2023-01-30T09:04:44.936Z,76.34
2023-01-30T09:09:46.489Z,76.31
2023-01-30T09:14:48.013Z,76.50
2023-01-30T09:19:49.673Z,77.19
2023-01-30T09:24:51.203Z,77.02
2023-01-30T09:29:55.549Z,76.88
2023-01-30T09:34:57.167Z,76.90
2023-01-30T09:39:58.636Z,76.97
2023-01-30T09:45:29.239Z,77.14
2023-01-30T09:51:01.651Z,76.97
2023-01-30T10:01:53.212Z,77.18
2023-01-30T10:07:00.763Z,76.88
2023-01-30T10:12:46.521Z,77.17
2023-01-30T10:17:57.109Z,77.33
2023-01-30T10:23:19.186Z,76.98
2023-01-30T10:28:20.591Z,76.85
2023-01-30T10:33:33.792Z,76.98
2023-01-30T10:38:46.498Z,77.43
2023-01-30T10:43:58.837Z,77.71
2023-01-30T10:49:19.939Z,77.68
2023-01-30T10:55:31.515Z,78.13
2023-01-30T11:00:55.721Z,78.87
2023-01-30T11:06:05.926Z,78.73
2023-01-30T11:11:31.324Z,78.55
2023-01-30T11:16:43.181Z,78.88
2023-01-30T11:21:53.859Z,78.47
2023-01-30T11:27:11.362Z,78.65
2023-01-30T11:32:19.670Z,79.10
2023-01-30T11:37:32.845Z,78.74
2023-01-30T11:42:34.385Z,78.46
2023-01-30T11:47:35.982Z,78.69
2023-01-30T11:52:38.926Z,79.00
2023-01-30T11:57:43.238Z,78.72
2023-01-30T12:02:45.300Z,78.23
2023-01-30T12:07:46.871Z,78.44
2023-01-30T12:12:52.612Z,78.65
2023-01-30T12:18:09.128Z,78.29
2023-01-30T12:23:38.817Z,78.42
2023-01-30T12:28:54.045Z,78.59
2023-01-30T12:33:56.696Z,78.50
2023-01-30T12:39:15.423Z,78.39
2023-01-30T12:45:19.156Z,78.91
2023-01-30T12:50:23.687Z,79.44
2023-01-30T12:55:32.187Z,79.02
2023-01-30T13:01:06.182Z,79.09
2023-01-30T13:06:21.815Z,79.46
2023-01-30T13:12:04.805Z,79.58
2023-01-30T13:17:40.307Z,79.09
2023-01-30T13:23:09.912Z,79.69
2023-01-30T13:28:19.889Z,79.67
2023-01-30T13:33:33.640Z,80.31
2023-01-30T13:38:41.461Z,80.28
2023-01-30T13:43:50.520Z,80.00
2023-01-30T13:48:51.953Z,80.23
2023-01-30T13:53:59.553Z,79.83
2023-01-30T13:59:32.076Z,79.94
2023-01-30T14:04:39.623Z,80.07
2023-01-30T14:09:46.415Z,80.47
2023-01-30T14:15:03.539Z,79.96
2023-01-30T14:20:17.400Z,80.37
2023-01-30T14:25:25.077Z,80.04
2023-01-30T14:30:51.520Z,80.58
2023-01-30T14:35:58.723Z,80.60
2023-01-30T14:41:00.250Z,80.32
2023-01-30T14:46:08.654Z,80.44
2023-01-30T14:51:28.763Z,80.85
2023-01-30T14:56:39.530Z,80.54
2023-01-30T15:01:56.709Z,80.49
2023-01-30T15:07:10.423Z,80.88
2023-01-30T15:12:33.995Z,80.94
2023-01-30T15:18:20.468Z,81.14
2023-01-30T15:23:46.723Z,81.14
2023-01-30T15:29:13.680Z,80.89
2023-01-30T15:34:20.817Z,81.01
2023-01-30T15:39:27.853Z,80.95
2023-01-30T15:44:32.380Z,80.91
2023-01-30T15:49:52.211Z,81.28
2023-01-30T15:54:57.083Z,81.43
2023-01-30T15:59:59.361Z,81.06
2023-01-30T16:05:21.492Z,80.90
2023-01-30T16:10:27.463Z,81.39
2023-01-30T16:15:36.090Z,81.57
2023-01-30T16:26:17.435Z,81.67
2023-01-30T16:31:19.321Z,81.66
2023-01-30T16:36:21.010Z,81.71
2023-01-30T16:41:30.356Z,81.94
2023-01-30T16:46:49.074Z,81.90
2023-01-30T16:52:00.695Z,82.09
2023-01-30T16:57:03.324Z,81.68
2023-01-30T17:02:06.884Z,81.41
2023-01-30T17:07:35.387Z,81.51
2023-01-30T17:12:37.992Z,81.78
2023-01-30T17:17:43.159Z,82.01
2023-01-30T17:22:47.947Z,82.00
2023-01-30T17:27:49.564Z,81.79
2023-01-30T17:32:51.280Z,81.84
2023-01-30T17:38:03.496Z,81.91
2023-01-30T17:43:06.150Z,82.10
2023-01-30T17:48:08.149Z,81.82
2023-01-30T17:53:09.654Z,82.20
2023-01-30T17:58:17.391Z,82.35
2023-01-30T18:03:19.707Z,82.25
2023-01-30T18:08:21.292Z,81.86
2023-01-30T18:13:22.743Z,82.17
2023-01-30T18:18:24.355Z,81.62
2023-01-30T18:23:25.830Z,81.99
2023-01-30T18:28:27.263Z,82.05
2023-01-30T18:33:28.792Z,81.89
2023-01-30T18:38:30.679Z,81.51
2023-01-30T18:43:32.173Z,81.72
2023-01-30T18:48:34.873Z,81.83
2023-01-30T18:53:36.541Z,81.40
2023-01-30T18:58:38.549Z,81.27
2023-01-30T19:03:40.640Z,81.30
2023-01-30T19:08:42.095Z,81.29
2023-01-30T19:13:43.562Z,81.51
2023-01-30T19:18:45.094Z,81.38
2023-01-30T19:23:47.259Z,81.47
2023-01-30T19:28:49.113Z,81.08
2023-01-30T19:33:59.034Z,81.36
2023-01-30T19:39:03.521Z,81.33
2023-01-30T19:44:07.060Z,80.95
2023-01-30T19:49:11.731Z,80.60
2023-01-30T19:54:13.359Z,81.10
2023-01-30T19:59:16.704Z,81.00
2023-01-30T20:04:18.463Z,80.96
2023-01-30T20:09:20.185Z,80.95
2023-01-30T20:14:21.760Z,81.10
2023-01-30T20:19:23.411Z,81.43
2023-01-30T20:24:25.025Z,81.51
2023-01-30T20:29:26.896Z,81.12
2023-01-30T20:34:28.508Z,81.39
2023-01-30T20:39:29.986Z,81.29
2023-01-30T20:44:31.501Z,81.31
2023-01-30T20:49:33.059Z,81.05
2023-01-30T20:54:34.591Z,81.32
2023-01-30T20:59:36.439Z,81.78
2023-01-30T21:04:38.395Z,81.45
2023-01-30T21:09:39.885Z,81.28
2023-01-30T21:14:41.327Z,81.11
2023-01-30T21:19:43.862Z,81.42
2023-01-30T21:24:45.373Z,81.38
2023-01-30T21:29:46.922Z,81.07
2023-01-30T21:34:48.388Z,81.14
2023-01-30T21:40:08.367Z,80.80
2023-01-30T21:45:11.188Z,81.12
2023-01-30T21:50:12.649Z,81.06
2023-01-30T21:55:14.249Z,80.59
2023-01-30T22:00:15.829Z,80.53
2023-01-30T22:05:18.102Z,80.74
2023-01-30T22:10:19.918Z,80.59
2023-01-30T22:15:22.691Z,80.57
2023-01-30T22:20:24.262Z,80.19
2023-01-30T22:25:25.777Z,80.32
2023-01-30T22:30:27.287Z,80.31
2023-01-30T22:35:28.967Z,79.91
2023-01-30T22:40:30.428Z,79.89
2023-01-30T22:45:34.926Z,80.41
2023-01-30T22:50:36.927Z,80.36
2023-01-30T22:55:39.258Z,80.02
2023-01-30T23:00:40.805Z,80.00
2023-01-30T23:05:42.340Z,80.27
2023-01-30T23:10:43.787Z,80.18
2023-01-30T23:15:46.729Z,79.83
2023-01-30T23:20:48.192Z,80.01
2023-01-30T23:25:49.687Z,79.98
2023-01-30T23:30:51.163Z,80.14
2023-01-30T23:35:52.678Z,79.90
2023-01-30T23:40:54.190Z,79.80
2023-01-30T23:45:56.011Z,79.71
2023-01-30T23:51:01.479Z,80.02
2023-01-30T23:56:04.299Z,79.72
